Timeline UpdatesTrip UpdatesNews PostsPvt PostsTravel TipsAdmin PostsConv PostsFollowed PostsChat RequestsBlog PostsPNR Posts

Disclaimer
Search
 
 
Fri Aug 1, 2014 15:23:38 ISTHomeTrainsΣChainsAtlasPNRForumGalleryNewsFAQTripsMembersLoginFeedback
No Recent News for this Train
Other Trains in the News **new
Latest...
.
Tue Dec 31, 2013 (01:14PM)
⇐ Return Journey: Train# 11015

11016/Kushinagar Express

Dec 31 2013 (1:14PM)
Change Departure Station:
Change Arrival Station:
Post a Train Travel TipPost a Train Travel Tip **new
Post a Comment/Question/Picture/VideoPost a Comment/Question/Picture/Video
Pantry/Catering
✓ Pantry Car Avbl
✓ Catering Avbl
RSA - Rake Sharing
No RSA.
Rake/Coach Composition
Loco-SLR-GEN-S1-S2-S3-S4-S5-S6-S7-S8-S9-S10-S11-S12-PC-S13-S14-A1-B1-B2-GEN-GEN-SLR
Loco
(GKP-JHS) GD-WDM-3A (JHS-LTT) BSL-WAP-4 Entry# 970760
News    PNR    Forum    Time-Table    Availability    Fare Chart    Map    Arr/Dep History    Trips    Gallery    ΣChains    X/O    Timeline    
Travel Time: 11h 20m    14 halts    Distance: 584 km    Avg Speed: 51 km/hr
Type: Mail/Express
Zone: CR/Central
Departs @ 00:40 (Avg 34m late)
Platform# 4
SMTWTFS
Lucknow Charbagh/LKO 
Arrives @ 12:00 (Avg 1h 35m late)
Platform# 1
SMTWTFS
Bhopal Junction/BPL 

14 halts. 82 intermediate Stations between Lucknow Charbagh and Bhopal Junction

Show ALL intermediate Stations  Show Old Time-Table

#CodeStation NameX/OArrivesAvgDepartsAvgHaltPFDay#KmSpeedElevZoneAddress
1GKPGorakhpur Junction (10)  -19:00+1021-269.75784mNERGorakhpur 273001, Uttar Pradesh
2KLDKhalilabad (3)X  19:36+2719:38+282m11-235.85586mNERKhalilabad- 272175, Uttar Pradesh
3BSTBasti (4)X  20:10+2620:15+275m11-206.38090mNERBasti 272001, Uttar Pradesh
4BVBabhnan (2)  20:38+3320:40+352m11-175.556101mNERDistrict- Basti, Uttar Pradesh
5MURMankapur Junction (5)  21:12+3021:14+302m21-145.764104mNERDistrict Gonda, Uttar Pradesh
6GDGonda Junction (3)X  21:40+3021:45+325m11-117.952110mNERGonda 271001, Uttar Pradesh
7BBKBarabanki Junction (4)X  23:28+2523:30+272m21-28.531122mNRPin-225001, Uttar Pradesh
8LKO»Lucknow Charbagh (9)»X  00:25+3700:40+3415m420.061123mNR226004, Uttar Pradesh
9ONUnnao Junction (5)XO  01:34+3601:36+362m--254.627129mNRUnnao, Uttar Pradesh
10CNBKanpur Central (10)  02:15+3602:25+4110m4272.033128mNCRKANPUR-208 001, Uttar Pradesh
11BZMBhimsen (1)  02:51+5202:53+542m1286.172136mNCRKanpur, Uttar Pradesh
12PHNPokhrayan (2)  03:30+5703:32+582m12130.560133mNCRPukhrayan, Uttar Pradesh
13KPIKalpi  03:47+1:0003:49+1:032m12145.579114mNCRKalpi Orai(05162-252206), Uttar Pradesh
14ORAIOrai (3)  04:14+1:1204:21+1:117m22178.382139mNCROrai(05162-252206), Uttar Pradesh
15AITAit Junction (2)X  04:39+1:1704:41+1:192m12202.961154mNCROrai(05162-252206), Uttar Pradesh
16CGNChirgaonX  05:38+1:2805:40+1:312m12260.522192mNCRChirgaon, Uttar Pradesh
17JHSJhansi Junction (7)07:05+5707:15+1:1010m12292.355259mNCRJhansi, Uttar Pradesh
18BABBabina (3)  07:43+1:1407:45+1:142m12317.886285mNCRBabina, Uttar Pradesh
19LARLalitpur (3)  08:30+1:2008:32+1:202m12382.652373mNCRLalitpur, Uttar Pradesh
20BINABina Junction (4)X  09:45+1:1509:50+1:155m42445.586414mWCRJn Pt - KATNI/GUNA/ BPL/JHS, Madhya Pradesh
21BAQGanj Basoda (4)  10:22+1:2910:24+1:312m22491.284416mWCRVidisha, Madhya Pradesh
22BHSVidisha (3)X  10:52+1:4110:54+1:442m22530.549432mWCRVidisha, Madhya Pradesh
23BPL•Bhopal Junction (6)•X  12:00+1:3512:05+1:435m12584.138497mWCRBhopal, Madhya Pradesh
24HBJBhopal HabibGanj (5)  12:15+1:4312:17+1:442m42590.364496mWCRHabibGanj, Madhya Pradesh
25MDDPMandi Dip (1)  12:32+1:4512:34+1:462m12606.464449mWCRMandideep, Madhya Pradesh
26HBDHoshangabad (2)  13:22+1:5813:24+1:582m--2657.742308mWCRHoshangabad, Madhya Pradesh
27ETItarsi Junction (7)  13:50+1:5613:55+2:035m22675.864329mWCRItarsi 461111, Madhya Pradesh
28TBNTimarni (2)  14:53+1:5514:55+1:542m12737.561308mWCRTimarni, Madhya Pradesh
29HDHarda (3)  15:09+1:5315:10+1:541m32751.686289mWCRHarda, Madhya Pradesh
30KKNKhirkiya (2)X  15:32+1:5415:34+1:542m12783.145281mWCRSH 15, Madhya Pradesh
31KNWKhandwa Junction (5)X  17:15+1:1617:20+1:175m12859.278310mCRKhandwa, Madhya Pradesh
32NPNRNepanagar (2)  17:53+1:1917:55+1:212m--2901.868289mCRState Highway 27, Madhya Pradesh
33BAUBurhanpur (2)X  18:18+1:2818:20+1:292m12928.176269mCRBurhanpur, Madhya Pradesh
34RVRaver (2)X  18:36+1:2618:38+1:272m--2948.364242mCRJalgaon, Maharashtra
35BSLBhusaval Junction (8)X  19:10+1:3819:20+1:4110m32982.663208mCRBhusaval 425201, Maharashtra
36JLJalgaon Junction (4)X  19:43+1:4019:45+1:412m221006.792213mCRJalgaon 425001, Maharashtra
37PCPachora Junction (4)X  20:16+1:5620:18+1:572m--21054.454264mCRPachora 424201, Maharashtra
38CSNChalisgaon Junction (3)XO  21:08+1:4821:10+1:512m--21099.259352mCRChalisgaon 424101, Maharashtra
39NGNNandgaon (3)  21:53+1:4121:55+1:422m--21141.476476mCRNandgaon, Maharashtra
40MMRManmad Junction (6)XO  22:15+1:5122:20+1:565m321166.879580mCRManmad 423104, Maharashtra
41NKNasik Road (3)X  23:15+1:4923:20+1:485m321239.543563mCRNashik 422101, Maharashtra
42DVLDevlali (3)X  23:28+1:5123:30+1:512m221245.326561mCRDist. Nashik 422401, Maharashtra
43IGPIgatpuri (4)X  01:15+5701:20+1:065m--31290.245589mCRIgatpuri 422403, Maharashtra
44KYNKalyan Junction (8)O  03:10+1:0803:15+1:055m531372.06710mCRKalyan 421301, Maharashtra
45TNAThane (10)O  03:33+4703:35+462m831392.22210mCRThane, Maharashtra
46LTTMumbai Lokmanya Tilak Terminus (5)  04:20+1:00-531408.7-7mCRMumbai, Maharashtra
Scroll to Top
Scroll to Bottom